Time;durP1;ratioP1;P1;durP2;ratioP2;P2;SDS_P1;SDS_P2;PMS_P1;PMS_P2;Temp;Humidity;BMP_temperature;BMP_pressure;BME280_temperature;BME280_humidity;BME280_pressure;Samples;Min_cycle;Max_cycle;Signal;HPM_P1;HPM_P2
2023/09/02 00:01:14;;;;;;;34.10;31.85;;;12.60;99.90;;;;;;6239868;23;20004;-77
2023/09/02 00:03:40;;;;;;;36.42;33.80;;;12.60;99.90;;;;;;6241252;23;20066;-77
2023/09/02 00:06:05;;;;;;;37.75;35.05;;;12.60;99.90;;;;;;6239864;23;20020;-77
2023/09/02 00:08:31;;;;;;;32.67;30.08;;;12.60;99.90;;;;;;6214420;23;20822;-77
2023/09/02 00:10:56;;;;;;;35.97;32.90;;;12.60;99.90;;;;;;6214504;23;20085;-77
2023/09/02 00:13:22;;;;;;;38.58;36.00;;;12.60;99.90;;;;;;6213637;23;20095;-77
2023/09/02 00:15:48;;;;;;;35.70;33.30;;;12.60;99.90;;;;;;6214222;23;20016;-77
2023/09/02 00:18:13;;;;;;;37.10;34.38;;;12.50;99.90;;;;;;6214378;23;20035;-77
2023/09/02 00:20:39;;;;;;;37.78;34.88;;;12.60;99.90;;;;;;6239625;23;20008;-77
2023/09/02 00:23:05;;;;;;;35.25;32.75;;;12.50;99.90;;;;;;6239486;23;20070;-77
2023/09/02 00:25:30;;;;;;;36.00;33.28;;;12.50;99.90;;;;;;6239936;23;20079;-77
2023/09/02 00:27:56;;;;;;;38.63;35.90;;;12.50;99.90;;;;;;6213549;23;20009;-77
2023/09/02 00:30:22;;;;;;;36.30;33.78;;;12.40;99.90;;;;;;6214155;23;20321;-77
2023/09/02 00:32:47;;;;;;;34.63;31.98;;;12.50;99.90;;;;;;6239921;23;20062;-77
2023/09/02 00:35:13;;;;;;;41.55;38.45;;;12.40;99.90;;;;;;6239684;23;20013;-78
2023/09/02 00:37:39;;;;;;;38.42;35.67;;;12.40;99.90;;;;;;6240031;23;20435;-77
2023/09/02 00:40:06;;;;;;;37.72;35.20;;;12.40;99.90;;;;;;6214663;23;20019;-77
2023/09/02 00:42:33;;;;;;;34.03;31.50;;;12.40;99.90;;;;;;6213205;23;20020;-77
2023/09/02 00:44:59;;;;;;;39.63;36.45;;;12.40;99.90;;;;;;6214194;23;20012;-77
2023/09/02 00:47:25;;;;;;;33.40;31.02;;;12.40;99.90;;;;;;6214058;23;20030;-77
2023/09/02 00:49:51;;;;;;;35.78;33.22;;;12.30;99.90;;;;;;6241530;22;20075;-77
2023/09/02 00:52:19;;;;;;;34.70;32.38;;;12.40;99.90;;;;;;6239692;23;20435;-77
2023/09/02 00:54:45;;;;;;;39.88;37.08;;;12.30;99.90;;;;;;6214086;23;20019;-77
2023/09/02 00:57:10;;;;;;;36.58;34.05;;;12.30;99.90;;;;;;6213626;23;20339;-77
2023/09/02 00:59:36;;;;;;;35.33;32.97;;;12.30;99.90;;;;;;6239337;23;20012;-77
2023/09/02 01:02:04;;;;;;;35.05;32.63;;;12.30;99.90;;;;;;6241088;22;20016;-77
2023/09/02 01:04:30;;;;;;;36.17;33.75;;;12.20;99.90;;;;;;6239703;23;20069;-77
2023/09/02 01:06:56;;;;;;;34.35;31.88;;;12.30;99.90;;;;;;6239197;23;20043;-77
2023/09/02 01:09:22;;;;;;;38.28;35.55;;;12.30;99.90;;;;;;6239448;23;20450;-77
2023/09/02 01:11:48;;;;;;;32.75;30.42;;;12.30;99.90;;;;;;6213296;23;20008;-77
2023/09/02 01:14:14;;;;;;;37.08;34.50;;;12.30;99.90;;;;;;6239397;23;20443;-77
2023/09/02 01:16:40;;;;;;;37.80;34.85;;;12.20;99.90;;;;;;6239214;23;20008;-77
2023/09/02 01:19:08;;;;;;;36.38;33.63;;;12.50;99.90;;;;;;6239133;23;20086;-77
2023/09/02 01:21:56;;;;;;;36.58;33.95;;;12.30;99.90;;;;;;6239447;23;20008;-77
2023/09/02 01:24:50;;;;;;;35.42;32.20;;;12.30;99.90;;;;;;6238975;23;20100;-77
2023/09/02 01:27:22;;;;;;;38.00;35.10;;;12.30;99.90;;;;;;6240495;22;20011;-77
2023/09/02 01:30:14;;;;;;;38.22;35.45;;;12.30;99.90;;;;;;6239089;23;20039;-77
2023/09/02 01:32:42;;;;;;;31.30;29.08;;;12.20;99.90;;;;;;6237899;23;20012;-77
2023/09/02 01:35:09;;;;;;;39.28;36.22;;;12.20;99.90;;;;;;6213912;23;20016;-77
2023/09/02 01:37:42;;;;;;;38.15;35.38;;;12.20;99.90;;;;;;6240687;22;20378;-77
2023/09/02 01:40:10;;;;;;;42.60;39.47;;;12.30;99.90;;;;;;6213099;23;20059;-77
2023/09/02 01:42:37;;;;;;;37.05;34.42;;;12.30;99.90;;;;;;6213567;23;20024;-77
2023/09/02 01:45:03;;;;;;;35.20;32.63;;;12.30;99.90;;;;;;6240637;23;20012;-77
2023/09/02 01:47:29;;;;;;;37.72;34.83;;;12.20;99.90;;;;;;6239095;23;20039;-77
2023/09/02 01:49:55;;;;;;;33.42;31.10;;;12.20;99.90;;;;;;6241018;22;20443;-77
2023/09/02 01:52:22;;;;;;;34.08;31.52;;;12.20;99.90;;;;;;6239306;23;20247;-77
2023/09/02 01:54:48;;;;;;;35.80;32.72;;;12.20;99.90;;;;;;6213303;23;20024;-77
2023/09/02 01:57:14;;;;;;;34.67;32.00;;;12.20;99.90;;;;;;6238884;23;20008;-77
2023/09/02 01:59:39;;;;;;;35.90;32.30;;;12.20;99.90;;;;;;6239141;23;20012;-77
2023/09/02 02:02:05;;;;;;;31.85;29.40;;;12.20;99.90;;;;;;6238900;23;20443;-77
2023/09/02 02:04:36;;;;;;;39.38;35.97;;;12.20;99.90;;;;;;6238848;23;20008;-77
2023/09/02 02:07:09;;;;;;;35.53;32.70;;;12.20;99.90;;;;;;6213814;23;20423;-77
2023/09/02 02:09:48;;;;;;;49.30;45.83;;;12.20;99.90;;;;;;6238751;23;20087;-77
2023/09/02 02:12:14;;;;;;;41.65;38.33;;;12.30;99.90;;;;;;6214005;23;20019;-77
2023/09/02 02:14:40;;;;;;;37.17;34.08;;;12.30;99.90;;;;;;6214086;23;20386;-77
2023/09/02 02:17:06;;;;;;;34.58;31.65;;;12.30;99.90;;;;;;6240891;23;20091;-77
2023/09/02 02:19:33;;;;;;;38.97;35.60;;;12.30;99.90;;;;;;6241265;23;20065;-77
2023/09/02 02:21:59;;;;;;;42.38;39.00;;;12.30;99.90;;;;;;6240960;23;20031;-77
2023/09/02 02:24:25;;;;;;;39.50;36.28;;;12.30;99.90;;;;;;6240186;23;20008;-77
2023/09/02 02:26:51;;;;;;;39.10;36.15;;;12.30;99.90;;;;;;6240840;23;20415;-77
2023/09/02 02:29:17;;;;;;;38.70;35.55;;;12.30;99.90;;;;;;6241178;23;20537;-77
2023/09/02 02:31:42;;;;;;;44.75;41.58;;;12.30;99.90;;;;;;6240925;23;20044;-77
2023/09/02 02:34:08;;;;;;;42.28;38.83;;;12.30;99.90;;;;;;6215626;23;20027;-77
2023/09/02 02:36:34;;;;;;;42.25;39.00;;;12.30;99.90;;;;;;6242672;22;20035;-77
2023/09/02 02:39:00;;;;;;;38.53;35.60;;;12.30;99.90;;;;;;6214968;23;20015;-77
2023/09/02 02:41:25;;;;;;;41.25;37.80;;;12.20;99.90;;;;;;6242058;23;20011;-77
2023/09/02 02:43:51;;;;;;;46.05;42.65;;;12.20;99.90;;;;;;6240473;23;20016;-77
2023/09/02 02:46:17;;;;;;;39.55;36.65;;;12.20;99.90;;;;;;6240630;23;20067;-77
2023/09/02 02:48:42;;;;;;;35.22;32.13;;;12.10;99.90;;;;;;6240708;23;20446;-77
2023/09/02 02:51:09;;;;;;;43.85;40.33;;;12.10;99.90;;;;;;6242592;23;20355;-77
2023/09/02 02:53:34;;;;;;;44.28;41.10;;;12.10;99.90;;;;;;6240030;23;20016;-77
2023/09/02 02:56:02;;;;;;;41.17;38.28;;;12.10;99.90;;;;;;6215241;23;20327;-77
2023/09/02 02:58:28;;;;;;;46.38;42.72;;;12.00;99.90;;;;;;6242252;22;20094;-77
2023/09/02 03:01:08;;;;;;;47.03;43.35;;;12.00;99.90;;;;;;6215154;23;20012;-77
2023/09/02 03:03:35;;;;;;;44.80;41.10;;;12.00;99.90;;;;;;6215508;23;20097;-77
2023/09/02 03:06:03;;;;;;;43.17;39.65;;;12.00;99.90;;;;;;6242100;22;20439;-77
2023/09/02 03:08:29;;;;;;;47.58;43.88;;;12.00;99.90;;;;;;6239942;23;20019;-77
2023/09/02 03:11:03;;;;;;;44.22;40.65;;;12.00;99.90;;;;;;6240420;23;20479;-77
2023/09/02 03:13:30;;;;;;;56.17;51.67;;;11.90;99.90;;;;;;6215122;23;20091;-77
2023/09/02 03:15:56;;;;;;;47.53;43.97;;;12.00;99.90;;;;;;6240445;23;20074;-77
2023/09/02 03:18:25;;;;;;;44.40;40.85;;;12.00;99.90;;;;;;6242305;23;20091;-77
2023/09/02 03:20:50;;;;;;;44.17;40.42;;;12.00;99.90;;;;;;6242113;23;20012;-77
2023/09/02 03:23:16;;;;;;;51.03;46.90;;;12.00;99.90;;;;;;6241575;22;20351;-77
2023/09/02 03:25:42;;;;;;;44.67;41.03;;;12.10;99.90;;;;;;6240082;23;20012;-77
2023/09/02 03:28:08;;;;;;;46.47;42.58;;;12.10;99.90;;;;;;6240582;23;20062;-77
2023/09/02 03:30:33;;;;;;;41.58;38.03;;;12.10;99.90;;;;;;6240274;23;20012;-77
2023/09/02 03:32:59;;;;;;;43.95;40.05;;;12.20;99.90;;;;;;6242162;23;20052;-77
2023/09/02 03:35:25;;;;;;;44.05;40.28;;;12.30;99.90;;;;;;6240423;23;20019;-77
2023/09/02 03:37:51;;;;;;;45.58;41.90;;;12.30;99.90;;;;;;6241506;23;20076;-77
2023/09/02 03:40:17;;;;;;;45.83;41.88;;;12.40;99.90;;;;;;6240199;23;20016;-77
2023/09/02 03:42:43;;;;;;;44.60;40.90;;;12.40;99.90;;;;;;6239734;23;20016;-77
2023/09/02 03:45:09;;;;;;;40.60;36.53;;;12.40;99.90;;;;;;6241997;22;20439;-77
2023/09/02 03:47:36;;;;;;;44.95;40.47;;;12.50;99.90;;;;;;6240234;23;20494;-77
2023/09/02 03:50:03;;;;;;;39.47;35.92;;;12.60;99.90;;;;;;6240409;23;20020;-77
2023/09/02 03:52:28;;;;;;;39.28;35.47;;;12.50;99.90;;;;;;6239510;23;20074;-77
2023/09/02 03:54:54;;;;;;;42.45;38.63;;;12.50;99.90;;;;;;6240103;23;20015;-77
2023/09/02 03:57:20;;;;;;;40.30;36.47;;;12.60;99.90;;;;;;6214536;23;20431;-77
2023/09/02 03:59:45;;;;;;;39.40;35.90;;;12.60;99.90;;;;;;6240055;23;20012;-77
2023/09/02 04:02:11;;;;;;;39.13;35.42;;;12.60;99.90;;;;;;6239760;23;20258;-77
2023/09/02 04:04:37;;;;;;;44.13;40.42;;;12.60;99.90;;;;;;6241839;22;20044;-77
2023/09/02 04:07:03;;;;;;;39.88;36.42;;;12.80;99.90;;;;;;6239736;23;20043;-77
2023/09/02 04:09:28;;;;;;;41.15;37.40;;;12.60;99.90;;;;;;6240301;23;20012;-77
2023/09/02 04:11:54;;;;;;;41.45;37.38;;;12.60;99.90;;;;;;6240155;23;20047;-77
2023/09/02 04:14:20;;;;;;;40.58;36.75;;;12.70;99.90;;;;;;6239639;23;20083;-77
2023/09/02 04:16:46;;;;;;;45.65;41.60;;;12.60;99.90;;;;;;6239836;23;20492;-78
2023/09/02 04:19:11;;;;;;;41.60;37.55;;;12.60;99.90;;;;;;6239881;23;20016;-77
2023/09/02 04:21:37;;;;;;;37.70;34.40;;;12.70;99.90;;;;;;6239081;23;20443;-77
2023/09/02 04:24:03;;;;;;;36.10;32.83;;;12.70;99.90;;;;;;6241111;23;20016;-77
2023/09/02 04:26:28;;;;;;;42.40;38.30;;;12.70;99.90;;;;;;6240140;23;20012;-77
2023/09/02 04:28:55;;;;;;;44.53;40.92;;;12.70;99.90;;;;;;6240952;23;20261;-77
2023/09/02 04:31:22;;;;;;;43.20;39.25;;;12.80;99.90;;;;;;6239778;23;20019;-77
2023/09/02 04:33:47;;;;;;;43.40;39.65;;;12.80;99.90;;;;;;6214461;23;20231;-78
2023/09/02 04:36:13;;;;;;;48.00;44.08;;;12.80;99.90;;;;;;6213822;23;20239;-77
2023/09/02 04:38:39;;;;;;;40.22;36.67;;;12.80;99.90;;;;;;6241231;23;20057;-77
2023/09/02 04:41:06;;;;;;;46.60;42.60;;;12.80;99.90;;;;;;6239564;23;20095;-77
2023/09/02 04:43:32;;;;;;;43.30;39.65;;;12.80;99.90;;;;;;6239019;23;20024;-77
2023/09/02 04:46:01;;;;;;;40.72;36.92;;;12.80;99.90;;;;;;6239566;23;20395;-77
2023/09/02 04:48:27;;;;;;;43.72;39.85;;;12.80;99.90;;;;;;6240610;22;20373;-77
2023/09/02 04:50:54;;;;;;;38.10;34.65;;;13.00;99.90;;;;;;6237039;23;20020;-77
2023/09/02 04:53:20;;;;;;;45.88;42.03;;;12.90;99.90;;;;;;6239694;23;20449;-77
2023/09/02 04:55:47;;;;;;;38.70;35.15;;;12.90;99.90;;;;;;6240853;22;20458;-78
2023/09/02 04:58:13;;;;;;;41.28;37.38;;;12.90;99.90;;;;;;6239639;23;20008;-78
2023/09/02 05:00:38;;;;;;;37.22;33.65;;;13.00;99.90;;;;;;6239425;23;20470;-77
2023/09/02 05:03:05;;;;;;;48.40;43.80;;;12.90;99.90;;;;;;6213669;23;20016;-77
2023/09/02 05:05:31;;;;;;;41.70;37.92;;;12.90;99.90;;;;;;6241473;22;20008;-77
2023/09/02 05:07:58;;;;;;;46.35;42.45;;;12.90;99.90;;;;;;6240032;23;20091;-77
2023/09/02 05:10:24;;;;;;;36.47;33.22;;;13.00;99.90;;;;;;6239606;23;20086;-77
2023/09/02 05:12:50;;;;;;;41.72;38.13;;;13.00;99.90;;;;;;6214017;23;20107;-77
2023/09/02 05:15:15;;;;;;;33.70;30.42;;;13.00;99.90;;;;;;6239389;23;20479;-77
2023/09/02 05:17:42;;;;;;;43.40;39.65;;;12.90;99.90;;;;;;6240297;23;20046;-77
2023/09/02 05:20:08;;;;;;;49.72;45.67;;;13.10;99.90;;;;;;6239700;23;20083;-77
2023/09/02 05:22:34;;;;;;;39.92;36.13;;;13.00;99.90;;;;;;6239269;23;20016;-77
2023/09/02 05:25:01;;;;;;;36.15;32.50;;;13.00;99.90;;;;;;6239325;23;20008;-77
2023/09/02 05:27:27;;;;;;;44.33;40.28;;;13.10;99.90;;;;;;6240964;22;20030;-77
2023/09/02 05:29:52;;;;;;;51.47;46.85;;;13.00;99.90;;;;;;6213925;23;20484;-77
2023/09/02 05:32:18;;;;;;;49.63;45.00;;;13.00;99.90;;;;;;6238755;23;20044;-77
2023/09/02 05:34:44;;;;;;;41.97;37.63;;;13.10;99.90;;;;;;6214088;23;20443;-78
2023/09/02 05:37:10;;;;;;;44.13;40.05;;;13.10;99.90;;;;;;6239106;23;20011;-77
2023/09/02 05:39:36;;;;;;;46.42;41.33;;;13.20;99.90;;;;;;6243213;23;20008;-78
2023/09/02 05:42:02;;;;;;;44.17;39.90;;;13.10;99.90;;;;;;6214983;23;20096;-80
2023/09/02 05:44:28;;;;;;;44.78;40.47;;;13.20;99.90;;;;;;6213780;23;20467;-79
2023/09/02 05:46:54;;;;;;;40.10;36.13;;;13.20;99.90;;;;;;6212659;23;20595;-78
2023/09/02 05:49:19;;;;;;;39.45;35.40;;;13.40;99.90;;;;;;6214089;23;20012;-78
2023/09/02 05:51:45;;;;;;;42.63;38.38;;;13.40;99.90;;;;;;6238973;23;20012;-78
2023/09/02 05:54:10;;;;;;;36.83;33.15;;;13.60;99.90;;;;;;6239377;23;20091;-79
2023/09/02 05:56:37;;;;;;;35.42;31.90;;;13.60;99.90;;;;;;6240479;23;20035;-78
2023/09/02 05:59:03;;;;;;;38.38;34.38;;;13.80;99.90;;;;;;6238418;23;20011;-79
2023/09/02 06:01:29;;;;;;;39.25;35.20;;;14.00;99.90;;;;;;6239687;22;20008;-79
2023/09/02 06:03:55;;;;;;;37.83;34.17;;;13.90;99.90;;;;;;6213037;23;20023;-79
2023/09/02 06:06:21;;;;;;;29.92;26.83;;;14.00;99.90;;;;;;6240271;23;20339;-79
2023/09/02 06:08:46;;;;;;;36.00;32.22;;;14.10;99.90;;;;;;6238158;23;20019;-80
2023/09/02 06:11:12;;;;;;;35.30;31.70;;;14.20;99.90;;;;;;6212781;23;20008;-78
2023/09/02 06:13:38;;;;;;;35.10;31.45;;;14.30;99.90;;;;;;6238070;23;20414;-79
2023/09/02 06:16:05;;;;;;;35.45;31.85;;;14.40;99.90;;;;;;6237182;23;20351;-78
2023/09/02 06:18:32;;;;;;;30.02;26.85;;;15.20;99.90;;;;;;6238211;23;20019;-79
2023/09/02 06:20:58;;;;;;;32.67;29.55;;;16.10;99.90;;;;;;6240436;22;20259;-79
2023/09/02 06:23:25;;;;;;;30.13;27.30;;;17.00;99.90;;;;;;6238328;23;20016;-78
2023/09/02 06:25:58;;;;;;;25.40;22.70;;;17.80;99.90;;;;;;6240021;22;20017;-78
2023/09/02 06:28:24;;;;;;;26.42;23.67;;;18.80;99.90;;;;;;6238178;23;20009;-78
2023/09/02 06:30:50;;;;;;;27.20;24.73;;;19.40;99.90;;;;;;6237851;23;20004;-78
2023/09/02 06:33:18;;;;;;;26.95;24.33;;;19.90;99.90;;;;;;6240145;22;20073;-78
2023/09/02 06:35:43;;;;;;;29.20;26.38;;;20.20;99.90;;;;;;6238263;23;20446;-79
2023/09/02 06:38:09;;;;;;;30.17;27.40;;;20.20;99.90;;;;;;6238241;23;20012;-79
2023/09/02 06:40:35;;;;;;;33.83;30.73;;;20.50;99.90;;;;;;6238326;23;20087;-78
2023/09/02 06:43:00;;;;;;;35.78;32.63;;;20.30;99.90;;;;;;6237827;23;20091;-78
2023/09/02 06:45:26;;;;;;;33.95;30.77;;;19.90;99.90;;;;;;6237666;23;20047;-78
2023/09/02 06:47:52;;;;;;;34.65;31.50;;;19.40;99.90;;;;;;6212854;23;20020;-80
2023/09/02 06:50:17;;;;;;;35.85;32.70;;;18.90;99.90;;;;;;6238169;23;20027;-79
2023/09/02 06:52:46;;;;;;;31.20;28.20;;;18.50;99.90;;;;;;6239975;23;20540;-79
2023/09/02 06:55:13;;;;;;;31.40;28.33;;;18.30;99.90;;;;;;6212630;23;20450;-78
2023/09/02 06:57:42;;;;;;;33.60;30.60;;;18.00;99.90;;;;;;6237116;23;20359;-78
2023/09/02 07:00:09;;;;;;;37.45;33.92;;;17.80;99.90;;;;;;6237461;23;20142;-78
2023/09/02 07:02:34;;;;;;;36.10;32.75;;;17.70;99.90;;;;;;6238925;23;20012;-79
2023/09/02 07:05:00;;;;;;;33.15;29.95;;;17.70;99.90;;;;;;6241268;22;20015;-81
2023/09/02 07:07:26;;;;;;;36.03;32.63;;;17.60;99.90;;;;;;6239996;23;20008;-79
2023/09/02 07:09:52;;;;;;;34.85;31.40;;;17.60;99.90;;;;;;6214242;23;20012;-79
2023/09/02 07:12:18;;;;;;;33.88;30.05;;;17.60;99.90;;;;;;6241441;22;20015;-77
2023/09/02 07:14:43;;;;;;;38.03;34.33;;;17.60;99.90;;;;;;6213674;23;20066;-80
2023/09/02 07:17:09;;;;;;;36.38;32.78;;;17.60;99.90;;;;;;6239382;23;20017;-80
2023/09/02 07:19:35;;;;;;;39.22;35.05;;;17.60;99.90;;;;;;6239607;23;20008;-80
2023/09/02 07:22:00;;;;;;;37.53;34.17;;;17.60;99.90;;;;;;6240076;23;20008;-79
2023/09/02 07:24:26;;;;;;;39.63;35.90;;;17.60;99.90;;;;;;6214602;23;20095;-77
2023/09/02 07:26:51;;;;;;;35.13;31.33;;;17.60;99.90;;;;;;6241374;22;20180;-79
2023/09/02 07:29:17;;;;;;;39.95;35.92;;;17.70;99.90;;;;;;6213412;23;20012;-78
2023/09/02 07:31:42;;;;;;;38.15;34.33;;;17.70;99.90;;;;;;6239414;23;20008;-79
2023/09/02 07:34:10;;;;;;;41.55;37.65;;;17.80;99.90;;;;;;6239237;23;20054;-79
2023/09/02 07:36:35;;;;;;;46.65;34.75;;;17.80;99.90;;;;;;6239755;23;20466;-80
2023/09/02 07:39:01;;;;;;;40.17;36.50;;;17.80;99.90;;;;;;6241036;22;20019;-80
2023/09/02 07:41:27;;;;;;;40.20;36.10;;;17.90;99.90;;;;;;6213715;23;20008;-80
2023/09/02 07:43:53;;;;;;;39.47;35.45;;;18.00;99.90;;;;;;6213453;23;20012;-80
2023/09/02 07:46:18;;;;;;;37.67;33.90;;;18.00;99.90;;;;;;6241381;22;20008;-80
2023/09/02 07:48:45;;;;;;;42.67;38.05;;;18.00;99.90;;;;;;6239519;23;20083;-79
2023/09/02 07:51:11;;;;;;;41.95;37.97;;;18.00;99.90;;;;;;6239481;23;20016;-79
2023/09/02 07:53:37;;;;;;;38.50;34.72;;;18.00;99.90;;;;;;6239315;23;20023;-78
2023/09/02 07:56:02;;;;;;;40.70;36.50;;;18.00;99.90;;;;;;6239472;23;20087;-79
2023/09/02 07:58:28;;;;;;;45.13;40.95;;;18.00;99.90;;;;;;6238638;23;20011;-79
2023/09/02 08:00:57;;;;;;;43.72;39.60;;;17.90;99.90;;;;;;6213966;23;20070;-80
2023/09/02 08:03:22;;;;;;;39.13;35.20;;;18.00;99.90;;;;;;6239163;23;20008;-80
2023/09/02 08:05:48;;;;;;;39.92;36.08;;;18.10;99.90;;;;;;6214110;23;20016;-79
2023/09/02 08:08:14;;;;;;;39.70;35.78;;;18.10;99.90;;;;;;6239367;23;20012;-80
2023/09/02 08:10:39;;;;;;;43.03;39.08;;;18.20;99.90;;;;;;6213875;23;20073;-79
2023/09/02 08:13:05;;;;;;;44.17;40.30;;;18.30;99.90;;;;;;6239765;23;20019;-81
2023/09/02 08:15:31;;;;;;;43.35;39.35;;;18.30;99.90;;;;;;6213961;23;20253;-79
2023/09/02 08:17:57;;;;;;;39.25;35.17;;;18.40;99.90;;;;;;6213775;23;20074;-80
2023/09/02 08:20:23;;;;;;;40.63;36.80;;;18.50;99.90;;;;;;6213900;23;20012;-82
2023/09/02 08:22:49;;;;;;;45.47;41.05;;;18.50;99.90;;;;;;6238812;23;20019;-80
2023/09/02 08:25:14;;;;;;;44.10;40.10;;;18.60;99.90;;;;;;6238803;23;20012;-79
2023/09/02 08:27:45;;;;;;;42.38;38.38;;;18.50;99.90;;;;;;6240351;23;20126;-79
2023/09/02 08:30:11;;;;;;;44.42;40.38;;;18.60;99.90;;;;;;6213759;23;20062;-79
2023/09/02 08:32:36;;;;;;;39.03;35.28;;;18.70;99.90;;;;;;6238846;23;20409;-84
2023/09/02 08:35:02;;;;;;;42.97;39.17;;;18.80;99.90;;;;;;6213801;23;20043;-81
2023/09/02 08:37:31;;;;;;;47.63;43.63;;;18.90;99.90;;;;;;6213828;23;20047;-79
2023/09/02 08:39:57;;;;;;;47.47;43.20;;;19.10;99.90;;;;;;6213670;23;20016;-81
2023/09/02 08:42:28;;;;;;;46.08;41.80;;;19.20;99.90;;;;;;6238192;23;20008;-82
2023/09/02 08:44:56;;;;;;;47.55;43.28;;;19.40;99.90;;;;;;6213612;23;20168;-81
2023/09/02 08:47:24;;;;;;;51.28;46.72;;;19.50;99.90;;;;;;6239047;23;20008;-79
2023/09/02 08:49:51;;;;;;;50.72;46.20;;;19.80;99.90;;;;;;6239081;23;20008;-78
2023/09/02 08:52:17;;;;;;;43.25;39.40;;;20.00;99.90;;;;;;6213499;23;20083;-80
2023/09/02 08:54:44;;;;;;;52.10;47.80;;;20.50;99.90;;;;;;6238574;23;20008;-80
2023/09/02 08:57:16;;;;;;;51.20;46.67;;;20.70;99.90;;;;;;6212866;23;20012;-82
2023/09/02 08:59:41;;;;;;;45.08;41.55;;;21.10;99.90;;;;;;6213457;23;20446;-81
2023/09/02 09:02:10;;;;;;;41.55;37.97;;;21.60;99.90;;;;;;6212888;23;20012;-80
2023/09/02 09:04:38;;;;;;;46.13;42.10;;;22.10;99.90;;;;;;6238462;23;20008;-80
2023/09/02 09:07:05;;;;;;;43.75;39.85;;;22.50;99.90;;;;;;6238309;23;20608;-82
2023/09/02 09:09:36;;;;;;;51.20;47.17;;;23.00;99.90;;;;;;6211907;23;20435;-80
2023/09/02 09:12:03;;;;;;;44.47;40.85;;;23.30;99.90;;;;;;6213028;23;20023;-82
2023/09/02 09:14:32;;;;;;;48.05;44.13;;;23.80;99.90;;;;;;6238092;23;20016;-83
2023/09/02 09:16:59;;;;;;;42.65;39.25;;;23.90;99.90;;;;;;6238090;23;20018;-83
2023/09/02 09:19:28;;;;;;;42.60;38.78;;;24.00;99.90;;;;;;6238001;23;20023;-83
2023/09/02 09:21:54;;;;;;;33.67;30.65;;;24.20;99.90;;;;;;6212255;23;20685;-80
2023/09/02 09:24:21;;;;;;;35.10;31.88;;;24.60;99.90;;;;;;6237120;23;20594;-81
2023/09/02 09:26:48;;;;;;;31.35;28.55;;;24.70;99.90;;;;;;6211902;23;20091;-82
2023/09/02 09:29:18;;;;;;;34.92;31.70;;;24.70;99.90;;;;;;6237367;23;20339;-79
2023/09/02 09:31:44;;;;;;;31.95;29.08;;;24.70;99.90;;;;;;6212424;23;20046;-81
2023/09/02 09:34:10;;;;;;;51.80;47.67;;;24.00;99.90;;;;;;6238096;23;20016;-81
2023/09/02 09:36:36;;;;;;;35.35;31.95;;;23.40;99.90;;;;;;6237406;23;20088;-83
2023/09/02 09:39:07;;;;;;;42.35;38.40;;;23.10;99.90;;;;;;6237355;23;20031;-85
2023/09/02 09:41:35;;;;;;;38.90;35.63;;;22.80;99.90;;;;;;6236749;23;20018;-82
2023/09/02 09:44:17;;;;;;;45.78;41.95;;;22.70;99.90;;;;;;6237462;23;20457;-83
2023/09/02 09:46:43;;;;;;;59.00;54.83;;;22.60;99.90;;;;;;6212208;23;20085;-90
2023/09/02 09:49:28;;;;;;;54.55;50.03;;;22.60;99.90;;;;;;6214802;23;20020;-79
2023/09/02 09:52:15;;;;;;;57.17;52.92;;;22.60;99.90;;;;;;6237590;23;20078;-80
2023/09/02 09:54:49;;;;;;;468.08;433.60;;;22.70;99.90;;;;;;6236842;23;20039;-79
2023/09/02 09:57:32;;;;;;;384.73;353.40;;;22.70;99.90;;;;;;6237683;23;20363;-79
2023/09/02 09:59:57;;;;;;;;;;;22.70;99.90;;;;;;6238369;23;20016;-78
2023/09/02 10:02:24;;;;;;;723.40;648.65;;;22.70;99.90;;;;;;6238929;23;20238;-78
2023/09/02 10:04:57;;;;;;;843.38;752.53;;;22.60;99.90;;;;;;6237370;23;20095;-83
2023/09/02 10:07:30;;;;;;;942.53;832.33;;;22.60;99.90;;;;;;6237154;23;20008;-79
2023/09/02 10:09:58;;;;;;;;;;;22.40;99.90;;;;;;6238549;23;20032;-81
2023/09/02 10:12:23;;;;;;;1132.25;961.45;;;22.40;99.90;;;;;;6239115;22;20412;-80
2023/09/02 10:14:50;;;;;;;1999.90;999.90;;;22.50;99.90;;;;;;6235970;23;20016;-80
2023/09/02 10:17:17;;;;;;;1999.90;999.90;;;22.40;99.90;;;;;;6211757;23;20008;-83
2023/09/02 10:19:44;;;;;;;1999.90;999.90;;;22.40;99.90;;;;;;6211573;23;20018;-81
2023/09/02 10:22:19;;;;;;;1857.43;999.90;;;22.20;99.90;;;;;;6236960;23;20087;-84
2023/09/02 10:24:56;;;;;;;1999.90;999.90;;;22.10;99.90;;;;;;6212143;23;20013;-84
2023/09/02 10:27:23;;;;;;;1999.90;999.90;;;22.20;99.90;;;;;;6239135;22;20040;-82
2023/09/02 10:30:00;;;;;;;1999.90;999.90;;;22.10;99.90;;;;;;6238284;23;20004;-82
2023/09/02 10:32:39;;;;;;;1999.90;999.90;;;22.10;99.90;;;;;;6211717;23;20008;-80
2023/09/02 10:35:12;;;;;;;1345.68;777.63;;;22.10;99.90;;;;;;6213321;23;20330;-81
2023/09/02 10:37:56;;;;;;;1957.82;999.90;;;22.30;99.90;;;;;;6214415;23;20012;-83
2023/09/02 10:40:26;;;;;;;1999.90;986.97;;;22.40;99.90;;;;;;6241846;22;20008;-84
2023/09/02 10:42:53;;;;;;;1999.90;525.88;;;22.50;99.90;;;;;;6240645;22;20020;-81
2023/09/02 10:45:19;;;;;;;1999.90;765.13;;;22.50;99.90;;;;;;6239248;23;20004;-82
2023/09/02 10:47:46;;;;;;;1991.85;518.95;;;22.60;99.90;;;;;;6213858;23;20007;-81
2023/09/02 10:50:13;;;;;;;1700.72;770.50;;;22.60;99.90;;;;;;6239599;23;20015;-82
2023/09/02 10:52:39;;;;;;;1999.90;637.10;;;22.70;99.90;;;;;;6239378;23;20039;-80
2023/09/02 10:55:08;;;;;;;1999.90;450.13;;;22.80;99.90;;;;;;6213683;23;20466;-81
2023/09/02 10:57:48;;;;;;;1999.90;598.28;;;22.90;99.90;;;;;;6239453;23;20031;-82
2023/09/02 11:00:21;;;;;;;1878.43;814.10;;;23.00;99.90;;;;;;6241005;23;20074;-79
2023/09/02 11:02:52;;;;;;;1999.90;483.45;;;22.90;99.90;;;;;;6240056;22;20042;-80
2023/09/02 11:05:18;;;;;;;1999.90;999.90;;;23.10;99.90;;;;;;6239085;23;20004;-82
2023/09/02 11:07:44;;;;;;;1999.90;999.90;;;23.20;99.90;;;;;;6213377;23;20339;-81
2023/09/02 11:10:11;;;;;;;1999.90;426.13;;;23.20;99.90;;;;;;6238959;23;20018;-79
2023/09/02 11:12:59;;;;;;;1965.72;807.47;;;23.20;99.90;;;;;;6239742;23;20012;-82
2023/09/02 11:15:29;;;;;;;1999.90;612.25;;;22.80;99.90;;;;;;6238896;23;20016;-79
2023/09/02 11:17:55;;;;;;;1999.90;839.30;;;22.50;99.90;;;;;;6240673;22;20051;-82
2023/09/02 11:20:25;;;;;;;1999.90;496.40;;;22.30;99.90;;;;;;6238740;23;20047;-84
2023/09/02 11:23:09;;;;;;;1999.90;768.15;;;22.10;99.90;;;;;;6213513;23;20018;-79
2023/09/02 11:25:42;;;;;;;1999.90;741.78;;;21.90;99.90;;;;;;6240749;22;20012;-80
2023/09/02 11:28:24;;;;;;;1999.90;681.67;;;21.90;99.90;;;;;;6238955;23;20056;-81
2023/09/02 11:31:10;;;;;;;1999.90;849.57;;;22.00;99.90;;;;;;6213070;23;20008;-81
2023/09/02 11:33:40;;;;;;;1999.90;999.90;;;22.10;99.90;;;;;;6238721;23;20023;-79
2023/09/02 11:36:10;;;;;;;1999.90;999.90;;;22.20;99.90;;;;;;6212257;23;20008;-80
2023/09/02 11:38:36;;;;;;;1999.90;749.03;;;22.20;99.90;;;;;;6238189;23;20012;-79
2023/09/02 11:41:02;;;;;;;1999.90;999.90;;;22.30;99.90;;;;;;6239287;23;20046;-79
2023/09/02 11:43:30;;;;;;;1999.90;515.53;;;22.20;99.90;;;;;;6238897;23;20020;-79
2023/09/02 11:45:57;;;;;;;1982.68;327.73;;;22.20;99.90;;;;;;6239186;23;20019;-80
2023/09/02 11:48:30;;;;;;;1999.90;999.90;;;22.20;99.90;;;;;;6213177;23;20018;-79
2023/09/02 11:51:00;;;;;;;1380.13;425.13;;;22.40;99.90;;;;;;6238091;23;20004;-80
2023/09/02 11:53:35;;;;;;;1999.90;999.90;;;22.50;99.90;;;;;;6212716;23;20023;-80
2023/09/02 11:56:00;;;;;;;1798.93;265.02;;;22.70;99.90;;;;;;6240670;23;20016;-81
2023/09/02 11:58:26;;;;;;;1942.68;809.38;;;22.60;99.90;;;;;;6212584;23;20019;-80
2023/09/02 12:00:52;;;;;;;1992.20;505.13;;;22.40;99.90;;;;;;6238808;23;20057;-80
2023/09/02 12:03:31;;;;;;;1962.63;377.38;;;22.30;99.90;;;;;;6240655;23;20093;-80
2023/09/02 12:06:02;;;;;;;1914.45;803.65;;;22.30;99.90;;;;;;6212297;23;20004;-80
2023/09/02 12:08:31;;;;;;;1999.90;999.90;;;22.40;99.90;;;;;;6213167;23;20071;-83
2023/09/02 12:11:02;;;;;;;1999.90;999.90;;;22.50;99.90;;;;;;6213985;23;20089;-80
2023/09/02 12:13:29;;;;;;;1999.90;999.90;;;22.70;99.90;;;;;;6239146;23;20090;-83
2023/09/02 12:15:55;;;;;;;1999.90;999.90;;;22.80;99.90;;;;;;6239043;23;20038;-80
2023/09/02 12:18:21;;;;;;;1999.90;999.90;;;23.10;99.90;;;;;;6212614;23;20012;-79
2023/09/02 12:20:47;;;;;;;1999.90;999.90;;;23.30;99.90;;;;;;6239591;23;20094;-80
2023/09/02 12:23:14;;;;;;;1999.90;999.90;;;23.30;99.90;;;;;;6214386;23;20438;-84
2023/09/02 12:25:41;;;;;;;1999.90;999.90;;;23.30;99.90;;;;;;6214732;23;20008;-80